Time,TemperatureF,DewpointF,PressureIn,WindDirection,WindDirectionDegrees,WindSpeedMPH,WindSpeedGustMPH,Humidity,HourlyPrecipIn,Conditions,Clouds,dailyrainin,SoftwareType,DateUTC
2013-03-26 00:07:00,32.5,31.0,29.70,South,183,0.0,0.0,94,0.00,,,0.00,weatherlink.com 1.10,2013-03-26 04:07:00,
2013-03-26 00:22:00,32.6,31.0,29.70,SSW,193,0.0,0.0,94,0.00,,,0.00,weatherlink.com 1.10,2013-03-26 04:22:00,
2013-03-26 00:37:00,32.9,32.0,29.71,SSW,202,0.0,1.0,95,0.00,,,0.00,weatherlink.com 1.10,2013-03-26 04:37:00,
2013-03-26 00:52:00,32.8,31.0,29.71,West,270,0.0,1.0,94,0.01,,,0.01,weatherlink.com 1.10,2013-03-26 04:52:00,
2013-03-26 01:07:00,32.9,31.0,29.71,West,268,0.0,0.0,94,0.01,,,0.01,weatherlink.com 1.10,2013-03-26 05:07:00,
2013-03-26 01:22:00,32.9,31.0,29.72,SW,233,0.0,1.0,94,0.01,,,0.01,weatherlink.com 1.10,2013-03-26 05:22:00,
2013-03-26 01:37:00,32.9,31.0,29.72,West,274,0.0,1.0,94,0.01,,,0.01,weatherlink.com 1.10,2013-03-26 05:37:00,
2013-03-26 01:52:00,32.8,31.0,29.73,West,262,0.0,1.0,94,0.00,,,0.01,weatherlink.com 1.10,2013-03-26 05:52:00,
2013-03-26 02:07:00,32.9,31.0,29.73,West,271,1.0,2.0,94,0.00,,,0.01,weatherlink.com 1.10,2013-03-26 06:07:00,
2013-03-26 02:22:00,32.8,31.0,29.73,WSW,242,0.0,1.0,94,0.00,,,0.01,weatherlink.com 1.10,2013-03-26 06:22:00,
2013-03-26 02:37:00,32.8,31.0,29.74,WSW,240,0.0,1.0,94,0.00,,,0.01,weatherlink.com 1.10,2013-03-26 06:37:00,
2013-03-26 02:52:00,32.9,31.0,29.74,West,269,0.0,1.0,94,0.00,,,0.01,weatherlink.com 1.10,2013-03-26 06:52:00,
2013-03-26 03:07:00,32.6,31.0,29.74,SSW,201,0.0,0.0,94,0.00,,,0.01,weatherlink.com 1.10,2013-03-26 07:07:00,
2013-03-26 03:22:00,32.1,31.0,29.74,SE,145,3.0,3.0,94,0.00,,,0.01,weatherlink.com 1.10,2013-03-26 07:22:00,
2013-03-26 03:37:00,31.5,30.0,29.74,SSE,160,1.0,3.0,94,0.00,,,0.01,weatherlink.com 1.10,2013-03-26 07:37:00,
2013-03-26 03:52:00,31.4,30.0,29.75,SE,145,0.0,2.0,94,0.00,,,0.01,weatherlink.com 1.10,2013-03-26 07:52:00,
2013-03-26 04:07:00,31.2,30.0,29.75,East,101,2.0,2.0,95,0.00,,,0.01,weatherlink.com 1.10,2013-03-26 08:07:00,
2013-03-26 04:22:00,31.0,30.0,29.75,South,169,0.0,1.0,95,0.00,,,0.01,weatherlink.com 1.10,2013-03-26 08:22:00,
2013-03-26 04:37:00,31.1,30.0,29.75,SE,143,2.0,2.0,95,0.00,,,0.01,weatherlink.com 1.10,2013-03-26 08:37:00,
2013-03-26 04:52:00,31.2,30.0,29.76,SE,129,0.0,2.0,95,0.00,,,0.01,weatherlink.com 1.10,2013-03-26 08:52:00,
2013-03-26 05:07:00,31.2,30.0,29.76,SE,145,0.0,1.0,95,0.00,,,0.01,weatherlink.com 1.10,2013-03-26 09:07:00,
2013-03-26 05:22:00,30.8,30.0,29.77,SSE,153,0.0,1.0,95,0.00,,,0.01,weatherlink.com 1.10,2013-03-26 09:22:00,
2013-03-26 05:38:00,30.6,29.0,29.77,SSE,166,1.0,1.0,95,0.00,,,0.01,weatherlink.com 1.10,2013-03-26 09:38:00,
2013-03-26 05:53:00,30.5,29.0,29.77,SSE,154,1.0,1.0,95,0.00,,,0.01,weatherlink.com 1.10,2013-03-26 09:53:00,
2013-03-26 06:08:00,30.5,29.0,29.78,SE,146,0.0,2.0,95,0.00,,,0.01,weatherlink.com 1.10,2013-03-26 10:08:00,
2013-03-26 06:23:00,30.4,29.0,29.78,SE,143,0.0,1.0,95,0.00,,,0.01,weatherlink.com 1.10,2013-03-26 10:23:00,
2013-03-26 06:38:00,30.3,29.0,29.79,SSE,158,0.0,2.0,95,0.00,,,0.01,weatherlink.com 1.10,2013-03-26 10:38:00,
2013-03-26 06:53:00,29.9,29.0,29.79,ESE,108,0.0,1.0,95,0.00,,,0.01,weatherlink.com 1.10,2013-03-26 10:53:00,
2013-03-26 07:08:00,30.0,29.0,29.79,SE,143,0.0,1.0,95,0.00,,,0.01,weatherlink.com 1.10,2013-03-26 11:08:00,
2013-03-26 07:23:00,30.0,29.0,29.80,ESE,115,0.0,1.0,95,0.00,,,0.01,weatherlink.com 1.10,2013-03-26 11:23:00,
2013-03-26 07:38:00,30.4,29.0,29.81,ESE,105,0.0,1.0,95,0.00,,,0.01,weatherlink.com 1.10,2013-03-26 11:38:00,
2013-03-26 07:53:00,31.5,30.0,29.82,ESE,106,0.0,1.0,95,0.00,,,0.01,weatherlink.com 1.10,2013-03-26 11:53:00,
2013-03-26 08:08:00,33.5,32.0,29.83,ESE,106,0.0,1.0,95,0.00,,,0.01,weatherlink.com 1.10,2013-03-26 12:08:00,
2013-03-26 08:23:00,33.3,32.0,29.84,West,271,0.0,1.0,93,0.00,,,0.01,weatherlink.com 1.10,2013-03-26 12:23:00,
2013-03-26 08:38:00,34.4,33.0,29.84,SE,146,0.0,1.0,94,0.01,,,0.02,weatherlink.com 1.10,2013-03-26 12:38:00,
2013-03-26 08:53:00,34.2,32.0,29.84,North,349,1.0,1.0,92,0.01,,,0.02,weatherlink.com 1.10,2013-03-26 12:53:00,
2013-03-26 09:08:00,35.8,33.0,29.85,SW,224,0.0,1.0,90,0.01,,,0.02,weatherlink.com 1.10,2013-03-26 13:08:00,
2013-03-26 09:23:00,37.1,32.0,29.86,WNW,297,0.0,1.0,83,0.02,,,0.03,weatherlink.com 1.10,2013-03-26 13:23:00,
2013-03-26 09:38:00,36.6,32.0,29.86,North,352,2.0,4.0,83,0.02,,,0.04,weatherlink.com 1.10,2013-03-26 13:38:00,
2013-03-26 09:53:00,37.4,32.0,29.86,WNW,288,4.0,5.0,82,0.02,,,0.04,weatherlink.com 1.10,2013-03-26 13:53:00,
2013-03-26 10:08:00,39.0,32.0,29.86,WNW,291,2.0,6.0,76,0.03,,,0.05,weatherlink.com 1.10,2013-03-26 14:08:00,
2013-03-26 10:23:00,39.2,32.0,29.86,North,9,5.0,9.0,75,0.03,,,0.06,weatherlink.com 1.10,2013-03-26 14:23:00,
2013-03-26 10:38:00,38.6,29.0,29.86,West,281,11.0,15.0,69,0.03,,,0.07,weatherlink.com 1.10,2013-03-26 14:38:00,
2013-03-26 10:53:00,39.2,30.0,29.87,West,278,5.0,11.0,70,0.05,,,0.09,weatherlink.com 1.10,2013-03-26 14:53:00,
2013-03-26 11:08:00,39.3,28.0,29.87,WNW,293,8.0,14.0,64,0.04,,,0.09,weatherlink.com 1.10,2013-03-26 15:08:00,
2013-03-26 11:23:00,39.6,28.0,29.88,WNW,290,8.0,16.0,63,0.04,,,0.10,weatherlink.com 1.10,2013-03-26 15:23:00,
2013-03-26 11:38:00,40.4,28.0,29.88,West,267,11.0,13.0,62,0.05,,,0.12,weatherlink.com 1.10,2013-03-26 15:38:00,
2013-03-26 11:53:00,41.1,28.0,29.88,SW,233,1.0,13.0,61,0.04,,,0.13,weatherlink.com 1.10,2013-03-26 15:53:00,
2013-03-26 12:08:00,41.0,27.0,29.88,West,269,5.0,13.0,59,0.05,,,0.14,weatherlink.com 1.10,2013-03-26 16:08:00,
2013-03-26 12:23:00,41.7,27.0,29.87,West,274,6.0,14.0,57,0.03,,,0.14,weatherlink.com 1.10,2013-03-26 16:23:00,
2013-03-26 12:38:00,41.9,27.0,29.87,West,276,1.0,17.0,57,0.02,,,0.14,weatherlink.com 1.10,2013-03-26 16:38:00,
2013-03-26 12:54:00,42.4,27.0,29.87,West,264,9.0,15.0,55,0.01,,,0.14,weatherlink.com 1.10,2013-03-26 16:54:00,
2013-03-26 13:09:00,42.7,28.0,29.87,SW,232,2.0,13.0,56,0.00,,,0.14,weatherlink.com 1.10,2013-03-26 17:09:00,
2013-03-26 13:24:00,43.7,27.0,29.87,West,280,6.0,17.0,52,0.00,,,0.14,weatherlink.com 1.10,2013-03-26 17:24:00,
2013-03-26 13:39:00,44.2,28.0,29.87,West,260,6.0,13.0,54,0.00,,,0.14,weatherlink.com 1.10,2013-03-26 17:39:00,
2013-03-26 13:54:00,44.4,28.0,29.87,West,259,7.0,16.0,52,0.00,,,0.14,weatherlink.com 1.10,2013-03-26 17:54:00,
2013-03-26 14:09:00,44.4,27.0,29.86,WNW,291,10.0,17.0,51,0.00,,,0.14,weatherlink.com 1.10,2013-03-26 18:09:00,
2013-03-26 14:24:00,45.3,27.0,29.86,WSW,249,12.0,16.0,50,0.00,,,0.14,weatherlink.com 1.10,2013-03-26 18:24:00,
2013-03-26 14:39:00,45.5,27.0,29.86,WSW,252,8.0,15.0,48,0.00,,,0.14,weatherlink.com 1.10,2013-03-26 18:39:00,
2013-03-26 14:54:00,46.0,24.0,29.85,SW,236,10.0,14.0,42,0.00,,,0.14,weatherlink.com 1.10,2013-03-26 18:54:00,
2013-03-26 15:09:00,46.1,25.0,29.85,West,276,6.0,15.0,43,0.00,,,0.14,weatherlink.com 1.10,2013-03-26 19:09:00,
2013-03-26 15:24:00,46.8,24.0,29.85,WNW,283,6.0,9.0,41,0.00,,,0.14,weatherlink.com 1.10,2013-03-26 19:24:00,
2013-03-26 15:39:00,46.0,26.0,29.85,West,274,12.0,12.0,45,0.00,,,0.14,weatherlink.com 1.10,2013-03-26 19:39:00,
2013-03-26 15:54:00,45.0,27.0,29.86,SW,233,11.0,21.0,49,0.00,,,0.14,weatherlink.com 1.10,2013-03-26 19:54:00,
2013-03-26 16:09:00,45.1,28.0,29.86,WNW,293,6.0,20.0,51,0.00,,,0.14,weatherlink.com 1.10,2013-03-26 20:09:00,
2013-03-26 16:24:00,46.1,28.0,29.86,WNW,298,13.0,19.0,49,0.00,,,0.14,weatherlink.com 1.10,2013-03-26 20:24:00,
2013-03-26 16:39:00,45.4,27.0,29.86,WNW,293,9.0,21.0,49,0.00,,,0.14,weatherlink.com 1.10,2013-03-26 20:39:00,
2013-03-26 16:54:00,46.1,28.0,29.86,West,267,11.0,19.0,50,0.00,,,0.14,weatherlink.com 1.10,2013-03-26 20:54:00,
2013-03-26 17:09:00,46.3,28.0,29.87,NW,312,6.0,19.0,50,0.00,,,0.14,weatherlink.com 1.10,2013-03-26 21:09:00,
2013-03-26 17:24:00,46.1,28.0,29.87,WNW,302,12.0,24.0,50,0.00,,,0.14,weatherlink.com 1.10,2013-03-26 21:24:00,
2013-03-26 17:39:00,45.6,28.0,29.88,West,278,7.0,21.0,50,0.00,,,0.14,weatherlink.com 1.10,2013-03-26 21:39:00,
2013-03-26 17:54:00,45.2,27.0,29.88,WNW,290,7.0,23.0,50,0.00,,,0.14,weatherlink.com 1.10,2013-03-26 21:54:00,
2013-03-26 18:09:00,45.3,27.0,29.88,WNW,290,5.0,15.0,49,0.00,,,0.14,weatherlink.com 1.10,2013-03-26 22:09:00,
2013-03-26 18:24:00,45.3,27.0,29.88,West,270,8.0,14.0,49,0.00,,,0.14,weatherlink.com 1.10,2013-03-26 22:24:00,
2013-03-26 18:39:00,45.2,26.0,29.89,WNW,294,9.0,14.0,48,0.00,,,0.14,weatherlink.com 1.10,2013-03-26 22:39:00,
2013-03-26 18:54:00,45.4,27.0,29.90,WNW,293,11.0,15.0,48,0.00,,,0.14,weatherlink.com 1.10,2013-03-26 22:54:00,
2013-03-26 19:09:00,45.3,26.0,29.91,NW,319,8.0,19.0,48,0.00,,,0.14,weatherlink.com 1.10,2013-03-26 23:09:00,
2013-03-26 19:24:00,44.6,27.0,29.91,WNW,302,6.0,14.0,50,0.00,,,0.14,weatherlink.com 1.10,2013-03-26 23:24:00,
2013-03-26 19:39:00,44.1,27.0,29.92,West,268,3.0,18.0,51,0.00,,,0.14,weatherlink.com 1.10,2013-03-26 23:39:00,
2013-03-26 19:54:00,43.7,27.0,29.93,WNW,298,10.0,16.0,52,0.00,,,0.14,weatherlink.com 1.10,2013-03-26 23:54:00,
2013-03-26 20:24:00,42.9,27.0,29.94,WNW,285,8.0,12.0,54,0.00,,,0.14,weatherlink.com 1.10,2013-03-27 00:24:00,
2013-03-26 20:39:00,42.5,27.0,29.95,WNW,285,7.0,10.0,55,0.00,,,0.14,weatherlink.com 1.10,2013-03-27 00:39:00,
2013-03-26 20:54:00,42.4,27.0,29.95,West,280,6.0,11.0,55,0.00,,,0.14,weatherlink.com 1.10,2013-03-27 00:54:00,
2013-03-26 21:09:00,42.1,27.0,29.96,West,260,2.0,10.0,56,0.00,,,0.14,weatherlink.com 1.10,2013-03-27 01:09:00,
2013-03-26 21:24:00,41.8,27.0,29.98,WNW,290,2.0,10.0,56,0.00,,,0.14,weatherlink.com 1.10,2013-03-27 01:24:00,
2013-03-26 21:39:00,41.5,27.0,29.98,WNW,291,3.0,8.0,57,0.00,,,0.14,weatherlink.com 1.10,2013-03-27 01:39:00,
2013-03-26 21:54:00,41.2,27.0,29.99,WNW,297,4.0,8.0,58,0.00,,,0.14,weatherlink.com 1.10,2013-03-27 01:54:00,
2013-03-26 22:10:00,41.1,27.0,29.99,NW,322,5.0,12.0,58,0.00,,,0.14,weatherlink.com 1.10,2013-03-27 02:10:00,
2013-03-26 22:25:00,40.9,28.0,29.99,West,278,8.0,14.0,60,0.00,,,0.14,weatherlink.com 1.10,2013-03-27 02:25:00,
2013-03-26 22:40:00,40.6,28.0,29.99,West,272,6.0,11.0,61,0.00,,,0.14,weatherlink.com 1.10,2013-03-27 02:40:00,
2013-03-26 22:55:00,40.4,28.0,29.99,West,276,5.0,11.0,62,0.00,,,0.14,weatherlink.com 1.10,2013-03-27 02:55:00,
2013-03-26 23:10:00,40.3,28.0,29.99,WSW,242,2.0,7.0,62,0.00,,,0.14,weatherlink.com 1.10,2013-03-27 03:10:00,
2013-03-26 23:25:00,40.1,28.0,29.99,WSW,251,0.0,3.0,62,0.00,,,0.14,weatherlink.com 1.10,2013-03-27 03:25:00,
2013-03-26 23:40:00,39.9,28.0,30.00,NW,315,0.0,2.0,62,0.00,,,0.14,weatherlink.com 1.10,2013-03-27 03:40:00,
2013-03-26 23:55:00,39.6,28.0,30.00,ESE,115,0.0,1.0,63,0.00,,,0.14,weatherlink.com 1.10,2013-03-27 03:55:00,